Terminal Aerodrome Forecast
Issued by NWS Grand Rapids, MI

Home | Current Version | Previous Version | Text Only | Print | Product List | Glossary On
Versions: 1 2 3 4 5 6 7 8 9 10 11 12 13
000
FTUS43 KGRR 210500
TAFGRR
TAF
KGRR 210540Z 2106/2206 16007KT P6SM BKN160
     FM211500 22010KT P6SM OVC100
     FM220000 25012KT 4SM -SHRA VCTS OVC035CB
     FM220300 28008KT P6SM OVC015=

USA.gov is the U.S. government's official web portal to all federal, state and local government web resources and services.